sensor_id;sensor_type;location;lat;lon;timestamp;pressure;altitude;pressure_sealevel;temperature;humidity
49461;BME280;35355;49.198;-0.368;2024-03-02T00:00:49;98878.16;;;6.50;66.95
49461;BME280;35355;49.198;-0.368;2024-03-02T00:03:15;98884.38;;;6.50;66.53
49461;BME280;35355;49.198;-0.368;2024-03-02T00:05:40;98882.75;;;6.49;66.00
49461;BME280;35355;49.198;-0.368;2024-03-02T00:08:06;98877.63;;;6.48;65.94
49461;BME280;35355;49.198;-0.368;2024-03-02T00:10:41;98872.47;;;6.46;66.18
49461;BME280;35355;49.198;-0.368;2024-03-02T00:13:07;98872.19;;;6.48;66.63
49461;BME280;35355;49.198;-0.368;2024-03-02T00:17:58;98874.91;;;6.48;66.78
49461;BME280;35355;49.198;-0.368;2024-03-02T00:20:26;98867.88;;;6.47;66.21
49461;BME280;35355;49.198;-0.368;2024-03-02T00:23:05;98860.84;;;6.46;66.67
49461;BME280;35355;49.198;-0.368;2024-03-02T00:25:52;98860.84;;;6.46;66.17
49461;BME280;35355;49.198;-0.368;2024-03-02T00:28:23;98861.63;;;6.46;66.87
49461;BME280;35355;49.198;-0.368;2024-03-02T00:30:58;98859.22;;;6.45;66.44
49461;BME280;35355;49.198;-0.368;2024-03-02T00:33:30;98851.06;;;6.45;65.82
49461;BME280;35355;49.198;-0.368;2024-03-02T00:35:57;98847.56;;;6.44;66.27
49461;BME280;35355;49.198;-0.368;2024-03-02T00:38:22;98846.78;;;6.44;67.10
49461;BME280;35355;49.198;-0.368;2024-03-02T00:40:48;98860.59;;;6.42;66.73
49461;BME280;35355;49.198;-0.368;2024-03-02T00:43:45;98847.63;;;6.39;66.62
49461;BME280;35355;49.198;-0.368;2024-03-02T00:46:15;98842.19;;;6.39;66.52
49461;BME280;35355;49.198;-0.368;2024-03-02T00:49:00;98835.94;;;6.39;66.67
49461;BME280;35355;49.198;-0.368;2024-03-02T00:51:28;98829.16;;;6.41;66.88
49461;BME280;35355;49.198;-0.368;2024-03-02T00:53:55;98827.53;;;6.40;66.50
49461;BME280;35355;49.198;-0.368;2024-03-02T00:56:22;98824.03;;;6.40;66.47
49461;BME280;35355;49.198;-0.368;2024-03-02T00:58:47;98805.34;;;6.38;66.21
49461;BME280;35355;49.198;-0.368;2024-03-02T01:01:13;98808.56;;;6.40;66.48
49461;BME280;35355;49.198;-0.368;2024-03-02T01:03:38;98795.28;;;6.39;66.45
49461;BME280;35355;49.198;-0.368;2024-03-02T01:06:05;98793.94;;;6.41;66.45
49461;BME280;35355;49.198;-0.368;2024-03-02T01:08:30;98788.50;;;6.41;66.17
49461;BME280;35355;49.198;-0.368;2024-03-02T01:10:55;98783.09;;;6.41;66.79
49461;BME280;35355;49.198;-0.368;2024-03-02T01:13:24;98780.09;;;6.43;67.07
49461;BME280;35355;49.198;-0.368;2024-03-02T01:15:50;98773.31;;;6.45;67.10
49461;BME280;35355;49.198;-0.368;2024-03-02T01:18:15;98772.47;;;6.45;66.88
49461;BME280;35355;49.198;-0.368;2024-03-02T01:20:41;98776.53;;;6.47;66.46
49461;BME280;35355;49.198;-0.368;2024-03-02T01:23:06;98775.16;;;6.50;66.32
49461;BME280;35355;49.198;-0.368;2024-03-02T01:25:31;98787.63;;;6.51;66.40
49461;BME280;35355;49.198;-0.368;2024-03-02T01:27:57;98784.66;;;6.53;66.49
49461;BME280;35355;49.198;-0.368;2024-03-02T01:30:22;98776.22;;;6.54;66.93
49461;BME280;35355;49.198;-0.368;2024-03-02T01:32:48;98791.09;;;6.57;67.32
49461;BME280;35355;49.198;-0.368;2024-03-02T01:35:13;98784.31;;;6.59;66.85
49461;BME280;35355;49.198;-0.368;2024-03-02T01:37:40;98788.06;;;6.63;67.11
49461;BME280;35355;49.198;-0.368;2024-03-02T01:40:06;98772.03;;;6.67;67.28
49461;BME280;35355;49.198;-0.368;2024-03-02T01:42:38;98771.47;;;6.70;67.12
49461;BME280;35355;49.198;-0.368;2024-03-02T01:45:07;98763.34;;;6.70;67.08
49461;BME280;35355;49.198;-0.368;2024-03-02T01:47:33;98760.91;;;6.68;66.77
49461;BME280;35355;49.198;-0.368;2024-03-02T01:49:59;98756.88;;;6.66;66.81
49461;BME280;35355;49.198;-0.368;2024-03-02T01:52:25;98762.88;;;6.63;66.37
49461;BME280;35355;49.198;-0.368;2024-03-02T01:54:50;98753.41;;;6.60;66.79
49461;BME280;35355;49.198;-0.368;2024-03-02T01:57:15;98745.56;;;6.59;66.34
49461;BME280;35355;49.198;-0.368;2024-03-02T01:59:41;98742.84;;;6.59;67.25
49461;BME280;35355;49.198;-0.368;2024-03-02T02:02:06;98741.72;;;6.60;66.71
49461;BME280;35355;49.198;-0.368;2024-03-02T02:04:32;98737.13;;;6.60;66.80
49461;BME280;35355;49.198;-0.368;2024-03-02T02:06:58;98727.38;;;6.59;66.71
49461;BME280;35355;49.198;-0.368;2024-03-02T02:09:24;98724.66;;;6.59;67.05
49461;BME280;35355;49.198;-0.368;2024-03-02T02:11:50;98724.66;;;6.59;66.43
49461;BME280;35355;49.198;-0.368;2024-03-02T02:14:15;98720.03;;;6.60;66.83
49461;BME280;35355;49.198;-0.368;2024-03-02T02:16:41;98706.78;;;6.58;66.99
49461;BME280;35355;49.198;-0.368;2024-03-02T02:19:06;98701.66;;;6.57;66.70
49461;BME280;35355;49.198;-0.368;2024-03-02T02:21:31;98698.94;;;6.57;67.06
49461;BME280;35355;49.198;-0.368;2024-03-02T02:23:57;98696.22;;;6.57;67.14
49461;BME280;35355;49.198;-0.368;2024-03-02T02:26:22;98693.50;;;6.57;66.99
49461;BME280;35355;49.198;-0.368;2024-03-02T02:28:47;98678.88;;;6.58;67.41
49461;BME280;35355;49.198;-0.368;2024-03-02T02:31:13;98679.97;;;6.57;67.14
49461;BME280;35355;49.198;-0.368;2024-03-02T02:33:42;98676.97;;;6.58;67.06
49461;BME280;35355;49.198;-0.368;2024-03-02T02:36:08;98682.09;;;6.60;67.13
49461;BME280;35355;49.198;-0.368;2024-03-02T02:38:38;98666.66;;;6.60;67.04
49461;BME280;35355;49.198;-0.368;2024-03-02T02:41:05;98658.53;;;6.60;67.01
49461;BME280;35355;49.198;-0.368;2024-03-02T02:43:31;98660.94;;;6.62;66.65
49461;BME280;35355;49.198;-0.368;2024-03-02T02:45:56;98656.91;;;6.59;67.03
49461;BME280;35355;49.198;-0.368;2024-03-02T02:48:21;98672.09;;;6.60;67.32
49461;BME280;35355;49.198;-0.368;2024-03-02T02:50:47;98670.44;;;6.59;66.76
49461;BME280;35355;49.198;-0.368;2024-03-02T02:53:12;98651.47;;;6.59;67.04
49461;BME280;35355;49.198;-0.368;2024-03-02T02:55:39;98642.56;;;6.59;67.50
49461;BME280;35355;49.198;-0.368;2024-03-02T02:58:06;98638.22;;;6.58;67.00
49461;BME280;35355;49.198;-0.368;2024-03-02T03:00:31;98633.59;;;6.58;67.22
49461;BME280;35355;49.198;-0.368;2024-03-02T03:02:56;98628.47;;;6.57;67.47
49461;BME280;35355;49.198;-0.368;2024-03-02T03:05:22;98632.28;;;6.56;66.92
49461;BME280;35355;49.198;-0.368;2024-03-02T03:07:47;98636.09;;;6.55;67.46
49461;BME280;35355;49.198;-0.368;2024-03-02T03:10:15;98636.66;;;6.52;67.08
49461;BME280;35355;49.198;-0.368;2024-03-02T03:12:41;98628.53;;;6.52;66.81
49461;BME280;35355;49.198;-0.368;2024-03-02T03:15:08;98623.09;;;6.52;66.76
49461;BME280;35355;49.198;-0.368;2024-03-02T03:17:34;98627.72;;;6.51;66.90
49461;BME280;35355;49.198;-0.368;2024-03-02T03:20:00;98622.56;;;6.49;67.30
49461;BME280;35355;49.198;-0.368;2024-03-02T03:22:26;98611.22;;;6.47;67.22
49461;BME280;35355;49.198;-0.368;2024-03-02T03:24:51;98602.28;;;6.47;67.37
49461;BME280;35355;49.198;-0.368;2024-03-02T03:27:17;98608.50;;;6.47;67.45
49461;BME280;35355;49.198;-0.368;2024-03-02T03:29:42;98601.47;;;6.46;67.70
49461;BME280;35355;49.198;-0.368;2024-03-02T03:32:07;98602.28;;;6.47;67.57
49461;BME280;35355;49.198;-0.368;2024-03-02T03:34:33;98593.34;;;6.46;67.24
49461;BME280;35355;49.198;-0.368;2024-03-02T03:36:59;98594.97;;;6.47;67.68
49461;BME280;35355;49.198;-0.368;2024-03-02T03:39:24;98593.03;;;6.48;67.63
49461;BME280;35355;49.198;-0.368;2024-03-02T03:41:49;98586.03;;;6.47;67.78
49461;BME280;35355;49.198;-0.368;2024-03-02T03:44:15;98596.28;;;6.50;67.47
49461;BME280;35355;49.198;-0.368;2024-03-02T03:46:40;98583.03;;;6.48;67.89
49461;BME280;35355;49.198;-0.368;2024-03-02T03:49:06;98588.44;;;6.48;67.48
49461;BME280;35355;49.198;-0.368;2024-03-02T03:51:33;98580.81;;;6.50;68.05
49461;BME280;35355;49.198;-0.368;2024-03-02T03:53:58;98581.91;;;6.49;68.14
49461;BME280;35355;49.198;-0.368;2024-03-02T03:56:23;98589.78;;;6.51;67.57
49461;BME280;35355;49.198;-0.368;2024-03-02T03:58:49;98589.78;;;6.51;67.66
49461;BME280;35355;49.198;-0.368;2024-03-02T04:01:14;98583.53;;;6.50;68.43
49461;BME280;35355;49.198;-0.368;2024-03-02T04:03:39;98587.88;;;6.52;67.97
49461;BME280;35355;49.198;-0.368;2024-03-02T04:06:05;98594.38;;;6.50;68.19
49461;BME280;35355;49.198;-0.368;2024-03-02T04:08:30;98595.47;;;6.49;68.48
49461;BME280;35355;49.198;-0.368;2024-03-02T04:10:56;98592.25;;;6.47;68.10
49461;BME280;35355;49.198;-0.368;2024-03-02T04:13:21;98596.59;;;6.48;68.23
49461;BME280;35355;49.198;-0.368;2024-03-02T04:15:47;98600.09;;;6.49;67.88
49461;BME280;35355;49.198;-0.368;2024-03-02T04:18:12;98604.13;;;6.52;68.44
49461;BME280;35355;49.198;-0.368;2024-03-02T04:20:38;98596.50;;;6.54;68.11
49461;BME280;35355;49.198;-0.368;2024-03-02T04:23:03;98582.97;;;6.54;68.41
49461;BME280;35355;49.198;-0.368;2024-03-02T04:25:28;98598.13;;;6.55;68.63
49461;BME280;35355;49.198;-0.368;2024-03-02T04:27:54;98604.34;;;6.55;68.30
49461;BME280;35355;49.198;-0.368;2024-03-02T04:30:19;98597.06;;;6.56;68.79
49461;BME280;35355;49.198;-0.368;2024-03-02T04:32:45;98610.59;;;6.56;68.24
49461;BME280;35355;49.198;-0.368;2024-03-02T04:35:12;98602.19;;;6.57;68.23
49461;BME280;35355;49.198;-0.368;2024-03-02T04:37:38;98606.78;;;6.57;68.10
49461;BME280;35355;49.198;-0.368;2024-03-02T04:40:04;98602.97;;;6.58;68.34
49461;BME280;35355;49.198;-0.368;2024-03-02T04:42:33;98591.06;;;6.59;68.31
49461;BME280;35355;49.198;-0.368;2024-03-02T04:44:58;98589.44;;;6.58;68.18
49461;BME280;35355;49.198;-0.368;2024-03-02T04:47:24;98590.75;;;6.60;68.03
49461;BME280;35355;49.198;-0.368;2024-03-02T04:49:49;98582.91;;;6.59;67.83
49461;BME280;35355;49.198;-0.368;2024-03-02T04:52:14;98572.66;;;6.56;68.16
49461;BME280;35355;49.198;-0.368;2024-03-02T04:54:40;98585.63;;;6.59;68.28
49461;BME280;35355;49.198;-0.368;2024-03-02T04:57:31;98588.34;;;6.59;68.34
49461;BME280;35355;49.198;-0.368;2024-03-02T04:59:57;98588.34;;;6.59;68.54
49461;BME280;35355;49.198;-0.368;2024-03-02T05:02:22;98582.91;;;6.59;68.47
49461;BME280;35355;49.198;-0.368;2024-03-02T05:04:47;98576.44;;;6.55;68.29
49461;BME280;35355;49.198;-0.368;2024-03-02T05:07:14;98579.66;;;6.57;68.49
49461;BME280;35355;49.198;-0.368;2024-03-02T05:09:39;98587.00;;;6.56;67.82
49461;BME280;35355;49.198;-0.368;2024-03-02T05:12:05;98588.09;;;6.55;67.99
49461;BME280;35355;49.198;-0.368;2024-03-02T05:14:48;98581.06;;;6.54;68.14
49461;BME280;35355;49.198;-0.368;2024-03-02T05:17:13;98580.78;;;6.56;68.29
49461;BME280;35355;49.198;-0.368;2024-03-02T05:19:38;98583.50;;;6.56;68.12
49461;BME280;35355;49.198;-0.368;2024-03-02T05:22:04;98581.28;;;6.58;67.97
49461;BME280;35355;49.198;-0.368;2024-03-02T05:24:29;98585.91;;;6.57;67.90
49461;BME280;35355;49.198;-0.368;2024-03-02T05:26:55;98586.72;;;6.58;67.68
49461;BME280;35355;49.198;-0.368;2024-03-02T05:29:20;98588.34;;;6.59;68.20
49461;BME280;35355;49.198;-0.368;2024-03-02T05:31:46;98582.91;;;6.59;67.70
49461;BME280;35355;49.198;-0.368;2024-03-02T05:34:11;98585.06;;;6.62;68.59
49461;BME280;35355;49.198;-0.368;2024-03-02T05:36:36;98594.22;;;6.66;68.04
49461;BME280;35355;49.198;-0.368;2024-03-02T05:39:04;98592.81;;;6.68;67.73
49461;BME280;35355;49.198;-0.368;2024-03-02T05:41:31;98587.41;;;6.68;67.69
49461;BME280;35355;49.198;-0.368;2024-03-02T05:43:56;98590.66;;;6.71;68.39
49461;BME280;35355;49.198;-0.368;2024-03-02T05:46:22;98582.50;;;6.71;67.94
49461;BME280;35355;49.198;-0.368;2024-03-02T05:48:47;98594.69;;;6.73;68.39
49461;BME280;35355;49.198;-0.368;2024-03-02T05:51:12;98601.72;;;6.74;67.72
49461;BME280;35355;49.198;-0.368;2024-03-02T05:53:38;98608.25;;;6.73;67.81
49461;BME280;35355;49.198;-0.368;2024-03-02T05:56:04;98605.53;;;6.73;68.24
49461;BME280;35355;49.198;-0.368;2024-03-02T05:58:29;98615.56;;;6.73;67.99
49461;BME280;35355;49.198;-0.368;2024-03-02T06:01:11;98610.13;;;6.73;67.88
49461;BME280;35355;49.198;-0.368;2024-03-02T06:03:36;98613.66;;;6.73;68.08
49461;BME280;35355;49.198;-0.368;2024-03-02T06:06:02;98601.50;;;6.71;67.61
49461;BME280;35355;49.198;-0.368;2024-03-02T06:08:27;98606.91;;;6.71;67.75
49461;BME280;35355;49.198;-0.368;2024-03-02T06:10:53;98589.81;;;6.70;68.45
49461;BME280;35355;49.198;-0.368;2024-03-02T06:13:18;98595.53;;;6.68;68.01
49461;BME280;35355;49.198;-0.368;2024-03-02T06:15:43;98598.25;;;6.68;67.88
49461;BME280;35355;49.198;-0.368;2024-03-02T06:18:09;98581.75;;;6.65;67.72
49461;BME280;35355;49.198;-0.368;2024-03-02T06:20:34;98594.81;;;6.63;67.75
49461;BME280;35355;49.198;-0.368;2024-03-02T06:23:00;98587.75;;;6.62;68.31
49461;BME280;35355;49.198;-0.368;2024-03-02T06:25:25;98585.06;;;6.62;68.70
49461;BME280;35355;49.198;-0.368;2024-03-02T06:27:51;98575.28;;;6.61;67.90
49461;BME280;35355;49.198;-0.368;2024-03-02T06:30:16;98577.50;;;6.59;67.90
49461;BME280;35355;49.198;-0.368;2024-03-02T06:32:41;98587.50;;;6.58;68.20
49461;BME280;35355;49.198;-0.368;2024-03-02T06:35:07;98590.50;;;6.57;68.36
49461;BME280;35355;49.198;-0.368;2024-03-02T06:37:35;98594.84;;;6.58;68.28
49461;BME280;35355;49.198;-0.368;2024-03-02T06:40:00;98589.72;;;6.56;67.91
49461;BME280;35355;49.198;-0.368;2024-03-02T06:42:26;98591.34;;;6.57;68.16
49461;BME280;35355;49.198;-0.368;2024-03-02T06:44:51;98602.97;;;6.58;68.38
49461;BME280;35355;49.198;-0.368;2024-03-02T06:47:16;98602.97;;;6.58;68.66
49461;BME280;35355;49.198;-0.368;2024-03-02T06:49:42;98594.06;;;6.57;68.66
49461;BME280;35355;49.198;-0.368;2024-03-02T06:52:07;98595.94;;;6.57;68.90
49461;BME280;35355;49.198;-0.368;2024-03-02T06:54:32;98603.47;;;6.60;68.70
49461;BME280;35355;49.198;-0.368;2024-03-02T06:56:59;98604.31;;;6.60;68.48
49461;BME280;35355;49.198;-0.368;2024-03-02T06:59:25;98611.06;;;6.63;68.96
49461;BME280;35355;49.198;-0.368;2024-03-02T07:01:50;98619.22;;;6.63;68.21
49461;BME280;35355;49.198;-0.368;2024-03-02T07:04:15;98615.66;;;6.62;68.48
49461;BME280;35355;49.198;-0.368;2024-03-02T07:06:41;98617.28;;;6.63;68.27
49461;BME280;35355;49.198;-0.368;2024-03-02T07:09:06;98619.72;;;6.65;68.26
49461;BME280;35355;49.198;-0.368;2024-03-02T07:11:36;98624.56;;;6.68;68.47
49461;BME280;35355;49.198;-0.368;2024-03-02T07:14:01;98630.47;;;6.70;69.09
49461;BME280;35355;49.198;-0.368;2024-03-02T07:16:27;98635.88;;;6.75;68.38
49461;BME280;35355;49.198;-0.368;2024-03-02T07:18:58;98643.13;;;6.80;68.70
49461;BME280;35355;49.198;-0.368;2024-03-02T07:21:24;98634.72;;;6.81;68.63
49461;BME280;35355;49.198;-0.368;2024-03-02T07:23:49;98643.81;;;6.91;68.53
49461;BME280;35355;49.198;-0.368;2024-03-02T07:26:15;98644.28;;;6.98;68.25
49461;BME280;35355;49.198;-0.368;2024-03-02T07:28:41;98641.53;;;7.03;68.62
49461;BME280;35355;49.198;-0.368;2024-03-02T07:31:07;98639.03;;;7.07;68.20
49461;BME280;35355;49.198;-0.368;2024-03-02T07:33:33;98638.97;;;7.12;68.49
49461;BME280;35355;49.198;-0.368;2024-03-02T07:35:59;98641.91;;;7.15;68.68
49461;BME280;35355;49.198;-0.368;2024-03-02T07:38:25;98642.41;;;7.17;68.25
49461;BME280;35355;49.198;-0.368;2024-03-02T07:40:51;98625.63;;;7.15;68.29
49461;BME280;35355;49.198;-0.368;2024-03-02T07:43:18;98640.22;;;7.19;68.17
49461;BME280;35355;49.198;-0.368;2024-03-02T07:45:44;98649.41;;;7.24;68.76
49461;BME280;35355;49.198;-0.368;2024-03-02T07:48:10;98653.66;;;7.30;67.99
49461;BME280;35355;49.198;-0.368;2024-03-02T07:50:35;98651.97;;;7.34;68.31
49461;BME280;35355;49.198;-0.368;2024-03-02T07:53:01;98655.41;;;7.40;67.94
49461;BME280;35355;49.198;-0.368;2024-03-02T07:55:27;98658.06;;;7.45;68.20
49461;BME280;35355;49.198;-0.368;2024-03-02T07:57:52;98654.19;;;7.51;67.84
49461;BME280;35355;49.198;-0.368;2024-03-02T08:00:17;98650.28;;;7.57;67.70
49461;BME280;35355;49.198;-0.368;2024-03-02T08:02:43;98644.28;;;7.60;67.72
49461;BME280;35355;49.198;-0.368;2024-03-02T08:05:08;98646.34;;;7.68;67.66
49461;BME280;35355;49.198;-0.368;2024-03-02T08:07:34;98653.53;;;7.78;67.83
49461;BME280;35355;49.198;-0.368;2024-03-02T08:10:00;98646.94;;;7.84;67.56
49461;BME280;35355;49.198;-0.368;2024-03-02T08:12:25;98659.22;;;7.96;67.38
49461;BME280;35355;49.198;-0.368;2024-03-02T08:14:50;98658.88;;;8.02;67.01
49461;BME280;35355;49.198;-0.368;2024-03-02T08:17:16;98662.91;;;8.05;67.15
49461;BME280;35355;49.198;-0.368;2024-03-02T08:19:42;98668.47;;;8.14;66.93
49461;BME280;35355;49.198;-0.368;2024-03-02T08:22:07;98676.03;;;8.17;66.81
49461;BME280;35355;49.198;-0.368;2024-03-02T08:24:34;98678.66;;;8.22;66.80
49461;BME280;35355;49.198;-0.368;2024-03-02T08:26:59;98682.09;;;8.28;66.49
49461;BME280;35355;49.198;-0.368;2024-03-02T08:29:25;98684.75;;;8.33;66.54
49461;BME280;35355;49.198;-0.368;2024-03-02T08:31:50;98681.94;;;8.38;66.51
49461;BME280;35355;49.198;-0.368;2024-03-02T08:34:16;98690.25;;;8.47;66.49
49461;BME280;35355;49.198;-0.368;2024-03-02T08:36:41;98688.75;;;8.54;66.15
49461;BME280;35355;49.198;-0.368;2024-03-02T08:39:08;98693.50;;;8.63;66.26
49461;BME280;35355;49.198;-0.368;2024-03-02T08:41:41;98701.06;;;8.66;65.97
49461;BME280;35355;49.198;-0.368;2024-03-02T08:44:07;98705.91;;;8.69;65.90
49461;BME280;35355;49.198;-0.368;2024-03-02T08:46:32;98706.69;;;8.69;65.83
49461;BME280;35355;49.198;-0.368;2024-03-02T08:48:58;98716.19;;;8.72;65.89
49461;BME280;35355;49.198;-0.368;2024-03-02T08:51:23;98713.38;;;8.77;65.70
49461;BME280;35355;49.198;-0.368;2024-03-02T08:53:48;98713.28;;;8.82;65.66
49461;BME280;35355;49.198;-0.368;2024-03-02T08:56:14;98720.25;;;8.88;65.67
49461;BME280;35355;49.198;-0.368;2024-03-02T08:58:41;98721.25;;;8.92;65.59
49461;BME280;35355;49.198;-0.368;2024-03-02T09:01:06;98725.78;;;8.97;65.40
49461;BME280;35355;49.198;-0.368;2024-03-02T09:03:33;98725.50;;;8.99;65.17
49461;BME280;35355;49.198;-0.368;2024-03-02T09:06:00;98729.84;;;9.00;65.03
49461;BME280;35355;49.198;-0.368;2024-03-02T09:08:25;98733.88;;;9.02;64.44
49461;BME280;35355;49.198;-0.368;2024-03-02T09:10:50;98732.66;;;9.08;65.32
49461;BME280;35355;49.198;-0.368;2024-03-02T09:13:15;98736.91;;;9.15;65.06
49461;BME280;35355;49.198;-0.368;2024-03-02T09:15:41;98746.38;;;9.17;64.77
49461;BME280;35355;49.198;-0.368;2024-03-02T09:18:07;98741.44;;;9.19;64.83
49461;BME280;35355;49.198;-0.368;2024-03-02T09:20:32;98745.97;;;9.24;64.70
49461;BME280;35355;49.198;-0.368;2024-03-02T09:22:57;98739.63;;;9.28;64.48
49461;BME280;35355;49.198;-0.368;2024-03-02T09:25:23;98742.88;;;9.30;64.48
49461;BME280;35355;49.198;-0.368;2024-03-02T09:27:48;98749.94;;;9.32;64.56
49461;BME280;35355;49.198;-0.368;2024-03-02T09:30:13;98748.31;;;9.30;64.22
49461;BME280;35355;49.198;-0.368;2024-03-02T09:32:39;98746.19;;;9.27;64.55
49461;BME280;35355;49.198;-0.368;2024-03-02T09:35:05;98749.72;;;9.28;64.45
49461;BME280;35355;49.198;-0.368;2024-03-02T09:37:30;98739.13;;;9.26;64.40
49461;BME280;35355;49.198;-0.368;2024-03-02T09:39:56;98743.56;;;9.22;64.15
49461;BME280;35355;49.198;-0.368;2024-03-02T09:42:21;98739.81;;;9.18;64.47
49461;BME280;35355;49.198;-0.368;2024-03-02T09:44:48;98738.31;;;9.12;64.20
49461;BME280;35355;49.198;-0.368;2024-03-02T09:47:13;98736.00;;;9.05;64.28
49461;BME280;35355;49.198;-0.368;2024-03-02T09:49:39;98740.41;;;9.01;64.48
49461;BME280;35355;49.198;-0.368;2024-03-02T09:52:05;98746.66;;;9.02;64.66
49461;BME280;35355;49.198;-0.368;2024-03-02T09:54:31;98740.63;;;9.05;64.38
49461;BME280;35355;49.198;-0.368;2024-03-02T09:56:56;98743.56;;;9.08;64.63
49461;BME280;35355;49.198;-0.368;2024-03-02T09:59:22;98748.09;;;9.13;64.71
49461;BME280;35355;49.198;-0.368;2024-03-02T10:02:00;98748.28;;;9.17;65.00
49461;BME280;35355;49.198;-0.368;2024-03-02T10:04:27;98746.88;;;9.19;64.46
49461;BME280;35355;49.198;-0.368;2024-03-02T10:07:16;98749.53;;;9.24;65.02
49461;BME280;35355;49.198;-0.368;2024-03-02T10:09:45;98751.63;;;9.27;64.58
49461;BME280;35355;49.198;-0.368;2024-03-02T10:12:11;98754.25;;;9.33;64.45
49461;BME280;35355;49.198;-0.368;2024-03-02T10:14:38;98752.94;;;9.44;64.68
49461;BME280;35355;49.198;-0.368;2024-03-02T10:17:05;98766.53;;;9.58;64.49
49461;BME280;35355;49.198;-0.368;2024-03-02T10:19:31;98753.22;;;9.70;64.40
49461;BME280;35355;49.198;-0.368;2024-03-02T10:21:58;98754.91;;;9.80;63.90
49461;BME280;35355;49.198;-0.368;2024-03-02T10:24:24;98763.78;;;9.86;63.77
49461;BME280;35355;49.198;-0.368;2024-03-02T10:26:51;98752.50;;;9.92;63.75
49461;BME280;35355;49.198;-0.368;2024-03-02T10:29:17;98765.19;;;9.97;63.63
49461;BME280;35355;49.198;-0.368;2024-03-02T10:31:45;98769.22;;;9.99;63.54
49461;BME280;35355;49.198;-0.368;2024-03-02T10:34:12;98762.16;;;9.98;63.37
49461;BME280;35355;49.198;-0.368;2024-03-02T10:36:40;98770.34;;;9.98;63.34
49461;BME280;35355;49.198;-0.368;2024-03-02T10:39:07;98775.28;;;9.96;63.40
49461;BME280;35355;49.198;-0.368;2024-03-02T10:41:37;98768.84;;;9.92;63.37
49461;BME280;35355;49.198;-0.368;2024-03-02T10:44:05;98767.84;;;9.88;63.21
49461;BME280;35355;49.198;-0.368;2024-03-02T10:46:32;98771.66;;;9.87;63.18
49461;BME280;35355;49.198;-0.368;2024-03-02T10:48:59;98772.28;;;9.84;63.29
49461;BME280;35355;49.198;-0.368;2024-03-02T10:51:25;98779.13;;;9.81;63.03
49461;BME280;35355;49.198;-0.368;2024-03-02T10:53:52;98772.41;;;9.79;63.26
49461;BME280;35355;49.198;-0.368;2024-03-02T10:56:23;98770.28;;;9.76;63.16
49461;BME280;35355;49.198;-0.368;2024-03-02T10:58:58;98770.69;;;9.69;63.05
49461;BME280;35355;49.198;-0.368;2024-03-02T11:01:25;98756.97;;;9.60;63.00
49461;BME280;35355;49.198;-0.368;2024-03-02T11:03:50;98767.88;;;9.60;63.00
49461;BME280;35355;49.198;-0.368;2024-03-02T11:06:17;98773.44;;;9.55;63.11
49461;BME280;35355;49.198;-0.368;2024-03-02T11:08:44;98772.91;;;9.53;63.29
49461;BME280;35355;49.198;-0.368;2024-03-02T11:11:19;98771.88;;;9.49;63.18
49461;BME280;35355;49.198;-0.368;2024-03-02T11:13:50;98778.47;;;9.48;63.30
49461;BME280;35355;49.198;-0.368;2024-03-02T11:16:33;98771.09;;;9.48;63.48
49461;BME280;35355;49.198;-0.368;2024-03-02T11:19:03;98781.19;;;9.48;63.21
49461;BME280;35355;49.198;-0.368;2024-03-02T11:21:29;98785.41;;;9.54;63.23
49461;BME280;35355;49.198;-0.368;2024-03-02T11:23:56;98781.00;;;9.58;63.27
49461;BME280;35355;49.198;-0.368;2024-03-02T11:26:22;98778.16;;;9.63;63.08
49461;BME280;35355;49.198;-0.368;2024-03-02T11:28:50;98781.38;;;9.65;62.98
49461;BME280;35355;49.198;-0.368;2024-03-02T11:31:16;98785.22;;;9.64;62.68
49461;BME280;35355;49.198;-0.368;2024-03-02T11:33:41;98783.59;;;9.63;62.54
49461;BME280;35355;49.198;-0.368;2024-03-02T11:36:08;98791.47;;;9.65;62.59
49461;BME280;35355;49.198;-0.368;2024-03-02T11:38:35;98779.16;;;9.68;62.39
49461;BME280;35355;49.198;-0.368;2024-03-02T11:41:10;98781.75;;;9.73;62.63
49461;BME280;35355;49.198;-0.368;2024-03-02T11:43:39;98786.81;;;9.79;62.56
49461;BME280;35355;49.198;-0.368;2024-03-02T11:46:05;98785.59;;;9.86;62.56
49461;BME280;35355;49.198;-0.368;2024-03-02T11:48:39;98800.63;;;9.97;62.44
49461;BME280;35355;49.198;-0.368;2024-03-02T11:51:04;98785.94;;;10.07;61.94
49461;BME280;35355;49.198;-0.368;2024-03-02T11:53:30;98793.41;;;10.15;62.18
49461;BME280;35355;49.198;-0.368;2024-03-02T11:55:58;98783.69;;;10.23;62.00
49461;BME280;35355;49.198;-0.368;2024-03-02T11:58:24;98786.81;;;10.30;61.84
49461;BME280;35355;49.198;-0.368;2024-03-02T12:00:53;98785.91;;;10.34;61.66
49461;BME280;35355;49.198;-0.368;2024-03-02T12:03:21;98782.66;;;10.32;61.23
49461;BME280;35355;49.198;-0.368;2024-03-02T12:05:52;98778.31;;;10.31;61.45
49461;BME280;35355;49.198;-0.368;2024-03-02T12:08:18;98781.66;;;10.28;60.66
49461;BME280;35355;49.198;-0.368;2024-03-02T12:10:56;98771.38;;;10.25;61.43
49461;BME280;35355;49.198;-0.368;2024-03-02T12:13:21;98777.31;;;10.27;60.86
49461;BME280;35355;49.198;-0.368;2024-03-02T12:15:54;98776.13;;;10.33;61.46
49461;BME280;35355;49.198;-0.368;2024-03-02T12:18:21;98773.75;;;10.41;60.94
49461;BME280;35355;49.198;-0.368;2024-03-02T12:20:48;98767.88;;;10.47;61.24
49461;BME280;35355;49.198;-0.368;2024-03-02T12:23:14;98772.09;;;10.53;61.03
49461;BME280;35355;49.198;-0.368;2024-03-02T12:25:40;98766.84;;;10.57;60.91
49461;BME280;35355;49.198;-0.368;2024-03-02T12:28:05;98779.88;;;10.60;60.21
49461;BME280;35355;49.198;-0.368;2024-03-02T12:30:34;98777.13;;;10.60;60.48
49461;BME280;35355;49.198;-0.368;2024-03-02T12:33:00;98776.50;;;10.63;60.18
49461;BME280;35355;49.198;-0.368;2024-03-02T12:35:25;98768.50;;;10.67;60.49
49461;BME280;35355;49.198;-0.368;2024-03-02T12:37:52;98771.44;;;10.70;60.31
49461;BME280;35355;49.198;-0.368;2024-03-02T12:40:18;98780.00;;;10.78;60.24
49461;BME280;35355;49.198;-0.368;2024-03-02T12:42:45;98776.81;;;10.84;60.09
49461;BME280;35355;49.198;-0.368;2024-03-02T12:45:11;98774.75;;;10.90;60.02
49461;BME280;35355;49.198;-0.368;2024-03-02T12:47:37;98783.31;;;10.97;59.89
49461;BME280;35355;49.198;-0.368;2024-03-02T12:50:04;98788.63;;;11.02;59.72
49461;BME280;35355;49.198;-0.368;2024-03-02T12:52:30;98789.94;;;11.05;59.39
49461;BME280;35355;49.198;-0.368;2024-03-02T12:55:01;98788.63;;;11.02;59.55
49461;BME280;35355;49.198;-0.368;2024-03-02T12:57:29;98790.06;;;11.00;59.53
49461;BME280;35355;49.198;-0.368;2024-03-02T13:00:03;98786.03;;;10.97;60.23